Time;durP1;ratioP1;P1;durP2;ratioP2;P2;SDS_P1;SDS_P2;PMS_P1;PMS_P2;Temp;Humidity;BMP_temperature;BMP_pressure;BME280_temperature;BME280_humidity;BME280_pressure;Samples;Min_cycle;Max_cycle;Signal;HPM_P1;HPM_P2
2021/03/08 00:01:39;;;;;;;30.98;13.30;;;;;;;3.85;64.27;96869.78;5000653;28;20054;-65
2021/03/08 00:04:05;;;;;;;25.40;12.45;;;;;;;3.88;63.69;96874.59;4985139;28;20483;-67
2021/03/08 00:06:30;;;;;;;28.02;13.75;;;;;;;3.82;63.20;96866.59;4983253;28;20046;-63
2021/03/08 00:08:55;;;;;;;26.38;12.90;;;;;;;3.65;63.07;96869.28;4980476;28;20066;-63
2021/03/08 00:11:21;;;;;;;31.50;13.65;;;;;;;3.54;64.33;96859.91;4977350;28;20374;-60
2021/03/08 00:13:46;;;;;;;28.55;12.38;;;;;;;3.51;64.06;96874.06;4982406;28;20645;-63
2021/03/08 00:16:12;;;;;;;26.85;12.85;;;;;;;3.44;64.13;96872.63;4977784;28;20042;-61
2021/03/08 00:18:37;;;;;;;28.52;12.70;;;;;;;3.43;63.63;96875.66;4987432;28;21306;-64
2021/03/08 00:21:03;;;;;;;29.83;13.02;;;;;;;3.42;62.83;96885.69;4989509;28;20171;-67
2021/03/08 00:23:29;;;;;;;24.38;12.77;;;;;;;3.42;63.05;96877.56;4999250;28;20696;-62
2021/03/08 00:25:54;;;;;;;28.77;13.27;;;;;;;3.47;62.49;96878.53;5000542;28;20041;-61
2021/03/08 00:28:19;;;;;;;26.08;12.93;;;;;;;3.45;62.87;96881.53;4989327;28;20129;-63
2021/03/08 00:30:45;;;;;;;24.80;11.98;;;;;;;3.39;62.75;96878.19;4989859;28;20139;-59
2021/03/08 00:33:10;;;;;;;24.20;12.02;;;;;;;3.43;62.78;96865.59;4986269;28;20502;-58
2021/03/08 00:35:36;;;;;;;23.92;12.07;;;;;;;3.43;62.97;96865.59;5001662;28;20056;-60
2021/03/08 00:38:01;;;;;;;25.73;11.98;;;;;;;3.62;61.76;96867.25;4984013;28;20088;-61
2021/03/08 00:40:26;;;;;;;23.50;12.02;;;;;;;3.63;61.60;96874.25;4973850;28;20046;-60
2021/03/08 00:42:52;;;;;;;27.23;12.57;;;;;;;3.61;60.80;96873.75;4971271;28;20050;-60
2021/03/08 00:45:20;;;;;;;26.92;12.27;;;;;;;3.68;61.69;96874.09;4981188;28;20302;-61
2021/03/08 00:47:46;;;;;;;25.20;12.13;;;;;;;3.69;60.85;96874.88;4986804;28;20137;-61
2021/03/08 00:50:17;;;;;;;25.10;10.75;;;;;;;3.76;60.40;96877.91;4995209;28;20116;-60
2021/03/08 00:52:43;;;;;;;22.85;11.65;;;;;;;3.83;59.75;96872.81;5003571;28;20037;-64
2021/03/08 00:55:10;;;;;;;24.02;12.15;;;;;;;3.81;60.07;96877.75;5005894;28;20112;-62
2021/03/08 00:57:35;;;;;;;23.83;10.95;;;;;;;3.97;59.41;96878.88;4984335;28;20057;-61
2021/03/08 01:00:01;;;;;;;25.02;11.80;;;;;;;3.99;59.63;96876.63;4984341;28;20034;-59
2021/03/08 01:02:26;;;;;;;23.27;11.15;;;;;;;4.06;59.43;96868.03;4958893;28;20042;-61
2021/03/08 01:04:52;;;;;;;26.15;11.98;;;;;;;4.11;59.17;96877.94;4981683;28;20042;-58
2021/03/08 01:07:17;;;;;;;26.25;12.20;;;;;;;4.16;59.28;96872.31;4975607;28;20479;-61
2021/03/08 01:09:43;;;;;;;21.90;11.07;;;;;;;3.97;59.24;96862.63;4981327;28;20061;-63
2021/03/08 01:12:09;;;;;;;24.73;12.00;;;;;;;3.81;59.02;96858.78;4976473;28;20042;-61
2021/03/08 01:14:34;;;;;;;24.25;11.65;;;;;;;3.71;60.32;96856.38;4963345;28;20487;-61
2021/03/08 01:17:00;;;;;;;24.00;11.30;;;;;;;3.59;59.92;96854.31;4978658;28;20049;-62
2021/03/08 01:19:27;;;;;;;25.33;12.00;;;;;;;3.45;60.81;96852.53;4974864;28;20348;-63
2021/03/08 01:21:52;;;;;;;26.25;11.43;;;;;;;3.35;61.98;96844.75;4979980;28;20043;-58
2021/03/08 01:24:17;;;;;;;25.00;12.30;;;;;;;3.33;61.59;96846.97;4975502;28;20048;-63
2021/03/08 01:26:43;;;;;;;24.65;13.00;;;;;;;3.37;62.57;96842.50;4963912;28;20502;-60
2021/03/08 01:29:12;;;;;;;39.97;16.85;;;;;;;3.40;62.98;96841.06;4975028;28;20046;-60
2021/03/08 01:31:38;;;;;;;25.50;12.20;;;;;;;3.54;63.01;96844.44;4977785;28;20152;-62
2021/03/08 01:34:03;;;;;;;23.35;12.18;;;;;;;3.58;62.18;96837.28;4978523;28;20082;-65
2021/03/08 01:36:29;;;;;;;27.67;12.77;;;;;;;3.58;61.85;96840.00;4978078;28;20125;-63
2021/03/08 01:38:54;;;;;;;25.48;12.25;;;;;;;3.63;61.97;96833.59;4981523;28;20049;-61
2021/03/08 01:41:19;;;;;;;27.13;12.43;;;;;;;3.70;61.90;96835.84;4970472;28;20042;-60
2021/03/08 01:43:45;;;;;;;23.00;12.15;;;;;;;3.77;62.03;96834.25;4963234;28;20038;-58
2021/03/08 01:46:10;;;;;;;24.23;12.57;;;;;;;3.86;61.49;96830.75;4975815;28;20431;-61
2021/03/08 01:48:36;;;;;;;24.67;11.68;;;;;;;3.76;61.28;96824.53;4980271;28;20113;-63
2021/03/08 01:51:04;;;;;;;25.95;13.20;;;;;;;3.72;61.64;96828.97;4980113;28;20046;-59
2021/03/08 01:53:29;;;;;;;27.17;12.75;;;;;;;3.77;61.24;96822.63;4978172;28;20073;-62
2021/03/08 01:55:56;;;;;;;24.75;11.70;;;;;;;3.89;60.42;96819.25;4980764;28;20124;-61
2021/03/08 01:58:22;;;;;;;26.63;12.43;;;;;;;3.80;60.85;96820.06;4974254;28;22159;-58
2021/03/08 02:00:48;;;;;;;22.95;11.25;;;;;;;3.71;59.72;96819.28;4980025;28;20043;-60
2021/03/08 02:03:13;;;;;;;24.13;12.27;;;;;;;3.81;59.93;96812.72;4977185;28;20137;-60
2021/03/08 02:05:44;;;;;;;25.77;12.27;;;;;;;3.62;59.09;96813.06;4979621;28;20406;-60
2021/03/08 02:08:12;;;;;;;23.63;12.00;;;;;;;3.41;59.64;96804.78;4975055;28;20054;-61
2021/03/08 02:10:40;;;;;;;24.40;12.65;;;;;;;3.26;60.77;96803.31;4981029;28;20554;-58
2021/03/08 02:13:22;;;;;;;22.98;11.30;;;;;;;3.24;59.62;96798.22;4981732;28;20047;-65
2021/03/08 02:16:07;;;;;;;25.38;12.15;;;;;;;3.19;60.32;96792.16;5002822;28;20043;-64
2021/03/08 02:18:39;;;;;;;24.10;12.20;;;;;;;3.22;60.03;96800.44;5002418;28;20400;-60
2021/03/08 02:21:32;;;;;;;24.58;12.52;;;;;;;3.33;59.77;96802.84;4982085;28;20042;-66
2021/03/08 02:24:03;;;;;;;20.85;11.52;;;;;;;3.44;59.24;96796.03;4985150;28;20044;-59
2021/03/08 02:26:44;;;;;;;23.27;11.13;;;;;;;3.54;59.17;96794.91;4949376;28;20054;-62
2021/03/08 02:29:31;;;;;;;23.73;10.85;;;;;;;3.66;58.68;96794.28;4961411;28;20511;-58
2021/03/08 02:32:01;;;;;;;24.65;12.25;;;;;;;3.70;59.30;96793.28;4984183;28;20042;-61
2021/03/08 02:34:29;;;;;;;22.13;11.30;;;;;;;3.64;58.42;96792.66;4979525;28;20034;-60
2021/03/08 02:37:12;;;;;;;19.85;10.93;;;;;;;3.67;58.35;96785.00;4983961;28;20137;-62
2021/03/08 02:39:42;;;;;;;23.75;11.15;;;;;;;3.58;57.91;96780.41;4982026;28;20077;-61
2021/03/08 02:42:14;;;;;;;23.83;10.73;;;;;;;3.55;58.32;96782.97;4979305;28;20132;-63
2021/03/08 02:44:41;;;;;;;21.45;10.80;;;;;;;3.66;58.55;96778.81;4984742;28;20082;-63
2021/03/08 02:47:10;;;;;;;22.02;10.88;;;;;;;3.73;57.69;96778.34;4982430;28;20121;-64
2021/03/08 02:49:36;;;;;;;22.30;10.95;;;;;;;3.78;57.54;96775.44;5003276;28;20058;-63
2021/03/08 02:52:08;;;;;;;25.23;11.85;;;;;;;3.58;57.33;96766.06;5002618;28;20057;-66
2021/03/08 02:54:36;;;;;;;21.60;10.93;;;;;;;3.22;58.32;96765.25;4985621;28;20042;-62
2021/03/08 02:57:04;;;;;;;25.85;11.88;;;;;;;3.08;58.79;96763.78;5003204;28;20096;-65
2021/03/08 02:59:36;;;;;;;25.63;11.93;;;;;;;2.95;59.63;96769.03;5001625;28;20034;-61
2021/03/08 03:02:04;;;;;;;22.42;11.35;;;;;;;2.84;59.91;96773.13;4999177;28;20073;-65
2021/03/08 03:04:30;;;;;;;23.08;11.90;;;;;;;2.76;59.98;96771.22;5003779;28;20092;-59
2021/03/08 03:06:57;;;;;;;29.30;11.10;;;;;;;2.70;61.11;96769.75;4987639;28;20042;-62
2021/03/08 03:09:24;;;;;;;23.02;11.65;;;;;;;2.66;60.61;96770.38;5003190;28;20449;-62
2021/03/08 03:11:54;;;;;;;24.77;12.18;;;;;;;2.58;61.45;96773.06;4983806;28;20141;-62
2021/03/08 03:14:24;;;;;;;23.90;11.98;;;;;;;2.61;60.94;96767.00;4977606;28;20070;-60
2021/03/08 03:16:53;;;;;;;23.15;12.20;;;;;;;2.52;61.49;96777.00;4984569;28;20050;-60
2021/03/08 03:19:21;;;;;;;25.23;11.23;;;;;;;2.45;61.43;96772.06;4975891;28;20410;-61
2021/03/08 03:21:48;;;;;;;20.45;10.23;;;;;;;2.41;61.51;96779.19;4979122;28;20404;-60
2021/03/08 03:24:13;;;;;;;25.88;12.05;;;;;;;2.31;63.14;96785.69;4978986;28;20484;-61
2021/03/08 03:26:41;;;;;;;26.90;11.70;;;;;;;2.26;62.53;96785.81;4982374;28;20048;-62
2021/03/08 03:29:08;;;;;;;24.60;11.07;;;;;;;2.13;63.01;96784.78;4981886;28;20093;-61
2021/03/08 03:31:38;;;;;;;23.88;11.95;;;;;;;2.01;63.63;96790.75;4989844;28;20069;-59
2021/03/08 03:34:05;;;;;;;19.98;10.10;;;;;;;1.97;63.92;96791.69;4979618;28;20048;-62
2021/03/08 03:36:36;;;;;;;26.67;12.60;;;;;;;1.92;64.30;96792.59;4981787;28;20048;-60
2021/03/08 03:39:05;;;;;;;25.45;12.60;;;;;;;1.87;64.46;96790.03;4981870;28;20042;-62
2021/03/08 03:41:32;;;;;;;27.33;11.45;;;;;;;1.85;64.84;96793.03;4982334;28;20042;-60
2021/03/08 03:43:58;;;;;;;25.20;11.88;;;;;;;1.84;65.15;96790.66;4982745;28;20057;-62
2021/03/08 03:46:24;;;;;;;21.95;10.77;;;;;;;1.83;64.91;96792.53;4977997;28;20429;-63
2021/03/08 03:48:49;;;;;;;25.13;11.48;;;;;;;1.84;65.20;96796.06;4983578;28;20145;-62
2021/03/08 03:51:15;;;;;;;23.88;11.65;;;;;;;1.86;65.81;96799.25;4988069;28;20137;-61
2021/03/08 03:53:40;;;;;;;24.30;11.55;;;;;;;1.86;65.15;96801.94;5002341;28;20042;-62
2021/03/08 03:56:09;;;;;;;23.77;12.80;;;;;;;1.86;65.01;96807.34;4995244;28;20380;-61
2021/03/08 03:58:41;;;;;;;23.73;11.95;;;;;;;1.89;65.73;96806.72;4999538;28;20380;-62
2021/03/08 04:01:11;;;;;;;24.10;11.75;;;;;;;1.71;66.02;96805.78;4995685;28;20041;-61
2021/03/08 04:04:14;;;;;;;24.98;11.23;;;;;;;1.55;67.03;96804.56;5001977;28;20141;-61
2021/03/08 04:06:58;;;;;;;23.52;11.43;;;;;;;1.38;68.07;96805.22;4951199;28;20418;-61
2021/03/08 04:09:25;;;;;;;23.75;11.52;;;;;;;1.47;68.82;96803.38;4996508;28;20428;-62
2021/03/08 04:11:53;;;;;;;22.77;11.43;;;;;;;1.17;69.60;96794.06;4983517;28;20049;-61
2021/03/08 04:14:22;;;;;;;22.98;12.30;;;;;;;1.09;69.01;96800.97;4975521;28;20049;-61
2021/03/08 04:16:54;;;;;;;24.85;12.27;;;;;;;1.05;70.27;96810.78;4983029;28;20045;-61
2021/03/08 04:19:23;;;;;;;26.92;12.07;;;;;;;1.09;70.22;96819.88;4986183;28;20514;-63
2021/03/08 04:21:54;;;;;;;26.63;12.20;;;;;;;0.97;70.36;96816.88;4995005;28;20511;-63
2021/03/08 04:24:20;;;;;;;26.38;13.10;;;;;;;1.01;70.97;96818.69;4991378;28;20057;-62
2021/03/08 04:26:47;;;;;;;29.15;12.93;;;;;;;1.01;71.04;96818.69;5002254;28;20038;-62
2021/03/08 04:29:13;;;;;;;24.85;12.32;;;;;;;1.04;70.97;96811.88;4996599;28;20047;-62
2021/03/08 04:31:39;;;;;;;26.65;13.63;;;;;;;0.93;71.19;96814.00;4982675;28;20046;-61
2021/03/08 04:34:05;;;;;;;25.73;12.23;;;;;;;0.74;72.32;96817.59;4997624;28;20044;-61
2021/03/08 04:36:31;;;;;;;30.13;13.23;;;;;;;0.64;72.51;96814.31;4994377;28;20136;-61
2021/03/08 04:38:57;;;;;;;26.20;12.20;;;;;;;0.56;72.89;96816.59;4993580;28;20835;-63
2021/03/08 04:41:29;;;;;;;23.95;12.63;;;;;;;0.46;72.72;96822.16;4994596;28;20793;-62
2021/03/08 04:43:55;;;;;;;24.30;12.23;;;;;;;0.24;73.70;96824.75;4990503;28;20044;-61
2021/03/08 04:46:21;;;;;;;27.10;13.57;;;;;;;0.31;73.56;96812.47;4997142;28;20041;-63
2021/03/08 04:48:48;;;;;;;27.95;12.63;;;;;;;0.32;74.14;96811.38;5001911;28;20406;-60
2021/03/08 04:51:15;;;;;;;27.25;12.43;;;;;;;0.35;74.05;96815.38;4995389;28;20128;-59
2021/03/08 04:53:41;;;;;;;28.55;14.40;;;;;;;-0.01;75.32;96816.78;5001756;28;20111;-60
2021/03/08 04:56:07;;;;;;;33.50;13.70;;;;;;;0.17;75.87;96820.53;4998438;28;20475;-62
2021/03/08 04:58:34;;;;;;;25.80;12.95;;;;;;;0.10;75.41;96816.63;4994224;28;20062;-62
2021/03/08 05:00:59;;;;;;;26.17;13.65;;;;;;;-0.12;76.61;96823.44;5019598;28;20041;-62
2021/03/08 05:03:26;;;;;;;28.25;13.35;;;;;;;-0.02;76.24;96827.84;4992256;28;20050;-61
2021/03/08 05:05:55;;;;;;;31.25;14.05;;;;;;;0.16;75.86;96827.03;4984260;28;20391;-61
2021/03/08 05:08:23;;;;;;;24.08;12.48;;;;;;;0.26;75.93;96826.03;4982168;28;20047;-60
2021/03/08 05:10:51;;;;;;;24.38;12.55;;;;;;;0.34;75.56;96828.06;4979707;28;20042;-59
2021/03/08 05:13:18;;;;;;;30.35;12.98;;;;;;;0.33;74.82;96831.84;4978223;28;20041;-61
2021/03/08 05:15:44;;;;;;;25.40;12.60;;;;;;;0.40;74.56;96833.31;4990827;28;20045;-60
2021/03/08 05:18:11;;;;;;;28.27;13.30;;;;;;;0.39;74.81;96819.06;4994334;28;20553;-59
2021/03/08 05:20:38;;;;;;;34.85;12.93;;;;;;;0.37;74.70;96832.84;4981468;28;20136;-61
2021/03/08 05:23:04;;;;;;;26.95;13.63;;;;;;;0.04;75.54;96829.38;4997473;28;20037;-63
2021/03/08 05:25:31;;;;;;;30.83;13.65;;;;;;;-0.04;76.58;96832.75;5000532;28;20037;-61
2021/03/08 05:27:59;;;;;;;24.40;13.40;;;;;;;-0.01;76.72;96830.25;4992247;28;20046;-62
2021/03/08 05:30:27;;;;;;;32.22;14.57;;;;;;;-0.23;77.13;96824.72;4987665;28;20756;-61
2021/03/08 05:33:01;;;;;;;29.52;14.25;;;;;;;-0.33;77.50;96833.72;4990655;28;20042;-61
2021/03/08 05:35:27;;;;;;;30.92;14.57;;;;;;;-0.29;77.46;96836.63;4988716;28;20042;-62
2021/03/08 05:37:54;;;;;;;30.55;13.70;;;;;;;-0.15;77.39;96842.09;5000090;28;20042;-62
2021/03/08 05:40:25;;;;;;;33.35;15.38;;;;;;;-0.12;77.33;96834.22;4995180;28;20052;-59
2021/03/08 05:42:59;;;;;;;25.92;12.75;;;;;;;-0.10;77.29;96832.03;4998957;28;20033;-62
2021/03/08 05:45:26;;;;;;;26.52;13.48;;;;;;;-0.13;77.21;96826.44;4994234;28;20054;-62
2021/03/08 05:48:34;;;;;;;29.33;14.15;;;;;;;-0.17;77.47;96839.69;4989009;28;20392;-62
2021/03/08 05:51:37;;;;;;;30.70;14.55;;;;;;;-0.53;78.76;96837.53;4981224;28;20047;-62
2021/03/08 05:54:32;;;;;;;27.48;13.15;;;;;;;-0.43;78.77;96844.66;4960422;28;20049;-63
2021/03/08 05:57:22;;;;;;;27.48;13.45;;;;;;;-0.34;78.69;96850.16;4980139;28;20054;-61
2021/03/08 06:00:00;;;;;;;26.38;12.77;;;;;;;-0.06;77.97;96848.41;4980328;28;20045;-59
2021/03/08 06:02:40;;;;;;;26.15;12.98;;;;;;;-0.04;77.57;96849.72;4959788;28;20078;-60
2021/03/08 06:05:24;;;;;;;25.20;12.18;;;;;;;-0.04;77.82;96848.91;4964018;28;20060;-61
2021/03/08 06:08:08;;;;;;;28.33;13.98;;;;;;;-0.19;77.33;96855.31;4971577;28;20109;-62
2021/03/08 06:10:39;;;;;;;29.83;13.77;;;;;;;-0.03;77.41;96858.59;4998510;28;20042;-61
2021/03/08 06:13:15;;;;;;;32.97;14.52;;;;;;;-0.17;77.50;96857.72;4985602;28;20469;-63
2021/03/08 06:15:49;;;;;;;29.92;14.45;;;;;;;-0.12;78.22;96853.06;4983549;28;20546;-61
2021/03/08 06:18:15;;;;;;;26.27;12.43;;;;;;;0.09;77.41;96861.63;4974652;28;20047;-61
2021/03/08 06:20:40;;;;;;;32.20;14.15;;;;;;;0.37;76.84;96859.78;4979028;28;20042;-62
2021/03/08 06:23:07;;;;;;;25.38;12.65;;;;;;;0.63;75.41;96863.91;4957306;28;20718;-61
2021/03/08 06:25:33;;;;;;;27.65;13.60;;;;;;;0.50;75.23;96865.50;4989288;28;20069;-59
2021/03/08 06:27:59;;;;;;;29.52;13.27;;;;;;;0.45;76.28;96868.28;4984754;28;20058;-60
2021/03/08 06:30:25;;;;;;;34.47;14.50;;;;;;;0.53;75.54;96864.91;4980223;28;20270;-59
2021/03/08 06:32:51;;;;;;;26.85;13.35;;;;;;;0.77;75.42;96870.13;4990519;28;20053;-62
2021/03/08 06:35:18;;;;;;;31.67;14.10;;;;;;;1.12;74.00;96874.00;4993246;28;20494;-59
2021/03/08 06:37:46;;;;;;;32.80;13.50;;;;;;;1.48;72.74;96870.56;5000381;28;20068;-60
2021/03/08 06:40:11;;;;;;;29.83;13.75;;;;;;;1.75;71.07;96874.31;4988899;28;20042;-61
2021/03/08 06:42:37;;;;;;;28.90;14.20;;;;;;;1.72;69.49;96869.50;4999568;28;20046;-62
2021/03/08 06:45:06;;;;;;;27.20;13.48;;;;;;;2.39;69.79;96876.03;4988437;28;20064;-63
2021/03/08 06:47:31;;;;;;;25.23;12.88;;;;;;;2.98;65.73;96873.91;4983415;28;20109;-62
2021/03/08 06:49:57;;;;;;;23.52;12.32;;;;;;;3.95;64.79;96881.09;4980111;28;20064;-62
2021/03/08 06:52:24;;;;;;;29.50;12.65;;;;;;;5.06;61.15;96881.50;4992796;28;20137;-61
2021/03/08 06:55:01;;;;;;;23.35;11.85;;;;;;;5.76;57.63;96884.63;4999951;28;20483;-62
2021/03/08 06:57:28;;;;;;;24.10;12.80;;;;;;;5.23;57.47;96891.50;4995559;28;20042;-63
2021/03/08 06:59:56;;;;;;;25.35;12.27;;;;;;;5.07;57.79;96883.91;4987702;28;20046;-63
2021/03/08 07:02:23;;;;;;;23.38;12.18;;;;;;;4.54;60.14;96891.44;4993557;28;20038;-63
2021/03/08 07:04:50;;;;;;;31.92;13.50;;;;;;;4.11;60.85;96899.63;5003652;28;20050;-63
2021/03/08 07:07:16;;;;;;;22.35;11.43;;;;;;;3.61;61.95;96895.44;4989908;28;20160;-63
2021/03/08 07:09:53;;;;;;;24.80;12.70;;;;;;;3.61;62.49;96908.97;4993667;28;20236;-63
2021/03/08 07:12:20;;;;;;;26.33;12.60;;;;;;;3.96;61.42;96904.41;4995623;28;20073;-62
2021/03/08 07:14:59;;;;;;;28.58;12.32;;;;;;;4.80;59.70;96901.41;4994173;28;20430;-63
2021/03/08 07:17:35;;;;;;;23.15;12.55;;;;;;;5.49;56.94;96907.66;4987622;28;20100;-63
2021/03/08 07:20:12;;;;;;;30.08;12.88;;;;;;;6.16;54.41;96911.41;4990108;28;20095;-63
2021/03/08 07:22:50;;;;;;;23.88;12.05;;;;;;;6.19;54.11;96918.09;4981250;28;20078;-63
2021/03/08 07:25:18;;;;;;;21.98;11.80;;;;;;;5.88;54.28;96919.25;4977759;28;20038;-64
2021/03/08 07:27:56;;;;;;;26.42;12.68;;;;;;;2.91;58.41;96927.69;4983634;28;20046;-63
2021/03/08 07:30:28;;;;;;;21.10;12.77;;;;;;;4.26;56.99;96923.50;4976938;28;20038;-63
2021/03/08 07:33:04;;;;;;;26.98;11.82;;;;;;;6.08;51.05;96923.13;4995938;28;20041;-64
2021/03/08 07:35:35;;;;;;;29.40;16.80;;;;;;;5.92;50.38;96920.19;5000909;28;20160;-64
2021/03/08 07:38:01;;;;;;;24.02;12.23;;;;;;;6.11;49.90;96922.50;5003461;28;20046;-63
2021/03/08 07:40:27;;;;;;;22.38;12.48;;;;;;;4.11;54.99;96924.00;4997292;28;20490;-62
2021/03/08 07:42:53;;;;;;;20.42;11.30;;;;;;;3.72;55.02;96929.22;5012029;28;20077;-63
2021/03/08 07:45:20;;;;;;;21.55;11.90;;;;;;;4.25;53.57;96926.53;4988452;28;20046;-63
2021/03/08 07:47:46;;;;;;;25.40;11.73;;;;;;;4.47;52.80;96926.38;4984737;28;20057;-62
2021/03/08 07:50:42;;;;;;;20.40;10.55;;;;;;;5.93;49.26;96927.22;4987800;28;20046;-62
2021/03/08 07:53:32;;;;;;;22.83;11.60;;;;;;;4.96;52.61;96926.09;4952886;28;20049;-63
2021/03/08 07:55:59;;;;;;;21.80;12.05;;;;;;;4.42;53.82;96923.81;4982135;28;20578;-62
2021/03/08 07:58:27;;;;;;;21.25;13.50;;;;;;;3.77;55.10;96934.50;4981810;28;20069;-62
2021/03/08 08:00:52;;;;;;;24.35;12.43;;;;;;;4.43;53.39;96930.03;4990633;28;20044;-62
2021/03/08 08:03:18;;;;;;;21.10;11.55;;;;;;;5.23;52.41;96924.09;4986363;28;20128;-62
2021/03/08 08:05:44;;;;;;;23.52;12.55;;;;;;;4.77;52.01;96923.75;5001915;28;20038;-63
2021/03/08 08:08:11;;;;;;;22.02;11.57;;;;;;;5.76;49.92;96930.84;4985609;28;20045;-62
2021/03/08 08:10:37;;;;;;;23.98;12.75;;;;;;;5.08;51.36;96926.22;4997453;28;20092;-62
2021/03/08 08:13:04;;;;;;;24.50;13.40;;;;;;;4.31;53.04;96930.69;4992309;28;20133;-61
2021/03/08 08:15:32;;;;;;;25.23;13.48;;;;;;;3.79;54.57;96932.25;4995148;28;20569;-62
2021/03/08 08:17:59;;;;;;;22.70;12.63;;;;;;;3.84;54.43;96936.75;5002527;28;20540;-63
2021/03/08 08:20:28;;;;;;;20.00;10.68;;;;;;;4.58;53.22;96934.97;4988376;28;20112;-63
2021/03/08 08:22:58;;;;;;;20.40;10.90;;;;;;;4.87;52.60;96934.28;4983949;28;20046;-63
2021/03/08 08:25:26;;;;;;;23.88;12.30;;;;;;;5.84;50.34;96935.44;4988187;28;20926;-62
2021/03/08 08:27:52;;;;;;;19.13;11.73;;;;;;;5.21;50.02;96923.63;5000984;28;20053;-63
2021/03/08 08:30:22;;;;;;;21.63;10.80;;;;;;;5.32;49.01;96928.34;4987994;28;20042;-63
2021/03/08 08:32:55;;;;;;;17.15;9.75;;;;;;;4.50;49.63;96931.16;4992910;28;20050;-62
2021/03/08 08:35:31;;;;;;;18.08;9.70;;;;;;;4.91;50.22;96937.94;4996617;28;20045;-63
2021/03/08 08:38:14;;;;;;;18.15;10.05;;;;;;;5.00;50.65;96937.13;5004180;28;20049;-61
2021/03/08 08:40:41;;;;;;;16.05;9.57;;;;;;;4.95;51.26;96929.94;5000475;28;20463;-62
2021/03/08 08:43:15;;;;;;;15.00;9.15;;;;;;;5.10;50.26;96932.13;4995698;28;20091;-62
2021/03/08 08:45:48;;;;;;;17.20;9.02;;;;;;;5.51;49.47;96932.56;4985840;28;20038;-62
2021/03/08 08:48:13;;;;;;;18.55;9.98;;;;;;;6.70;49.93;96935.09;4987334;28;20573;-61
2021/03/08 08:50:50;;;;;;;20.83;12.00;;;;;;;4.88;51.64;96943.19;5000735;28;20049;-62
2021/03/08 08:53:34;;;;;;;22.10;11.90;;;;;;;5.21;51.32;96937.22;4995446;28;20120;-63
2021/03/08 08:56:00;;;;;;;21.30;10.57;;;;;;;5.79;48.75;96930.19;4983529;28;20041;-63
2021/03/08 08:58:28;;;;;;;19.65;9.75;;;;;;;6.70;50.92;96938.59;4976749;28;20080;-62
2021/03/08 09:01:20;;;;;;;20.55;10.63;;;;;;;8.88;44.36;96939.47;5001178;28;20137;-63
2021/03/08 09:04:00;;;;;;;21.90;10.95;;;;;;;7.42;45.48;96941.03;5000401;28;20149;-62
2021/03/08 09:06:54;;;;;;;16.92;10.52;;;;;;;7.25;45.00;96936.56;4995167;28;20038;-64
2021/03/08 09:09:43;;;;;;;19.13;11.45;;;;;;;8.23;44.30;96932.19;4994759;28;20162;-63
2021/03/08 09:12:09;;;;;;;20.63;11.65;;;;;;;9.07;42.81;96927.84;4994996;28;20042;-63
2021/03/08 09:14:41;;;;;;;18.98;10.18;;;;;;;8.89;42.53;96928.16;5000653;28;20502;-62
2021/03/08 09:17:29;;;;;;;19.30;10.75;;;;;;;8.57;43.02;96930.03;4995104;28;20045;-60
2021/03/08 09:19:54;;;;;;;17.25;10.73;;;;;;;9.70;40.92;96925.09;5000119;28;20054;-64
2021/03/08 09:22:26;;;;;;;19.05;10.70;;;;;;;10.27;39.13;96928.31;4992123;28;20056;-63
2021/03/08 09:24:53;;;;;;;21.92;11.88;;;;;;;8.96;41.99;96925.63;4999440;28;20458;-63
2021/03/08 09:27:25;;;;;;;18.77;10.68;;;;;;;8.03;42.00;96925.72;4994377;28;20053;-62
2021/03/08 09:29:51;;;;;;;20.30;11.20;;;;;;;6.00;48.23;96930.25;4999836;28;20105;-63
2021/03/08 09:32:18;;;;;;;16.40;9.82;;;;;;;7.73;45.85;96930.69;4994348;28;20069;-63
2021/03/08 09:34:44;;;;;;;20.23;10.98;;;;;;;6.74;45.63;96932.50;4997562;28;20042;-62
2021/03/08 09:37:10;;;;;;;19.30;11.88;;;;;;;6.41;46.10;96936.81;4977919;28;20046;-63
2021/03/08 09:39:50;;;;;;;21.42;10.68;;;;;;;6.76;47.61;96946.56;4999857;28;20077;-62
2021/03/08 09:42:16;;;;;;;20.45;11.30;;;;;;;6.72;47.09;96943.72;4994707;28;20044;-63
2021/03/08 09:44:43;;;;;;;20.55;10.90;;;;;;;7.95;43.99;96934.84;5000294;28;20510;-63
2021/03/08 09:47:09;;;;;;;19.02;11.63;;;;;;;7.14;44.99;96940.88;4982375;28;20096;-62
2021/03/08 09:49:54;;;;;;;20.95;11.68;;;;;;;6.67;47.22;96943.94;4977023;28;20046;-61
2021/03/08 09:52:32;;;;;;;18.77;10.32;;;;;;;6.83;47.28;96944.88;4975584;28;20106;-63
2021/03/08 09:54:58;;;;;;;20.40;11.20;;;;;;;7.36;45.96;96947.81;4979918;28;20535;-63
2021/03/08 09:57:53;;;;;;;16.27;10.23;;;;;;;6.56;47.13;96945.47;4970834;28;21075;-61
2021/03/08 10:00:20;;;;;;;17.00;9.75;;;;;;;6.94;45.53;96945.25;4946489;28;20403;-61
2021/03/08 10:02:45;;;;;;;19.23;11.40;;;;;;;6.64;45.72;96944.59;4979990;28;20042;-61
2021/03/08 10:05:12;;;;;;;20.70;11.75;;;;;;;7.32;44.91;96949.63;4957344;28;20048;-61
2021/03/08 10:07:55;;;;;;;21.50;11.93;;;;;;;6.84;46.66;96951.94;4979788;28;20443;-63
2021/03/08 10:10:24;;;;;;;19.45;10.82;;;;;;;6.86;46.74;96948.84;4969899;28;20046;-62
2021/03/08 10:13:00;;;;;;;19.95;11.75;;;;;;;7.41;45.15;96944.88;4980232;28;20536;-61
2021/03/08 10:15:26;;;;;;;21.10;12.85;;;;;;;5.45;49.13;96942.84;4974695;28;20042;-59
2021/03/08 10:18:02;;;;;;;20.40;11.65;;;;;;;6.60;47.23;96940.94;4980363;28;20097;-61
2021/03/08 10:20:28;;;;;;;19.83;10.88;;;;;;;6.69;45.64;96947.91;4976188;28;20039;-58
2021/03/08 10:22:54;;;;;;;20.75;11.93;;;;;;;7.55;43.90;96941.03;4980315;28;20041;-61
2021/03/08 10:25:21;;;;;;;21.00;11.73;;;;;;;6.33;46.97;96943.09;4978834;28;20573;-62
2021/03/08 10:27:58;;;;;;;20.08;11.30;;;;;;;6.95;45.15;96937.88;4997928;28;20062;-61
2021/03/08 10:30:25;;;;;;;21.55;11.07;;;;;;;7.12;46.96;96937.69;4982473;28;20585;-60
2021/03/08 10:32:55;;;;;;;16.83;9.88;;;;;;;7.94;43.05;96930.53;4980329;28;20097;-60
2021/03/08 10:35:22;;;;;;;19.58;10.38;;;;;;;7.47;45.35;96938.06;4978805;28;20042;-61
2021/03/08 10:37:48;;;;;;;21.55;12.60;;;;;;;6.32;47.58;96934.16;4980608;28;20046;-62
2021/03/08 10:40:17;;;;;;;21.15;13.20;;;;;;;6.01;48.74;96926.38;4941748;28;20086;-61
2021/03/08 10:42:43;;;;;;;23.67;12.65;;;;;;;6.93;48.14;96935.47;4964271;28;20054;-61
2021/03/08 10:45:10;;;;;;;21.17;11.65;;;;;;;6.91;48.81;96926.06;4958826;28;20399;-62
2021/03/08 10:47:37;;;;;;;20.35;11.65;;;;;;;7.23;44.93;96922.50;4976811;28;20562;-64
2021/03/08 10:50:03;;;;;;;25.05;12.80;;;;;;;7.36;44.85;96914.31;5011244;28;20050;-62
2021/03/08 10:52:29;;;;;;;21.83;12.63;;;;;;;6.80;46.90;96912.09;4999554;28;20066;-63
2021/03/08 10:54:54;;;;;;;22.35;13.00;;;;;;;6.19;48.18;96923.53;4985676;28;20073;-59
2021/03/08 10:57:21;;;;;;;20.75;11.77;;;;;;;7.63;47.90;96923.75;4996567;28;20080;-62
2021/03/08 10:59:49;;;;;;;22.63;11.68;;;;;;;7.72;45.55;96926.34;5002846;28;20053;-63
2021/03/08 11:02:16;;;;;;;19.30;12.32;;;;;;;6.81;47.49;96916.41;4995472;28;20145;-62
2021/03/08 11:04:43;;;;;;;23.98;13.20;;;;;;;6.67;47.69;96917.50;5002717;28;20537;-63
2021/03/08 11:07:10;;;;;;;20.73;12.18;;;;;;;6.47;46.71;96921.06;4997540;28;20045;-62
2021/03/08 11:09:37;;;;;;;22.17;11.68;;;;;;;6.07;48.57;96927.00;5002323;28;20070;-63
2021/03/08 11:12:04;;;;;;;20.13;11.82;;;;;;;6.50;48.77;96921.19;5000924;28;20517;-63
2021/03/08 11:14:46;;;;;;;20.38;11.35;;;;;;;6.54;46.87;96909.66;5002283;28;20486;-62
2021/03/08 11:17:11;;;;;;;22.42;11.15;;;;;;;6.91;47.20;96917.91;4997703;28;20046;-63
2021/03/08 11:19:37;;;;;;;22.45;12.25;;;;;;;6.46;46.34;96903.13;5002909;28;20053;-62
2021/03/08 11:22:12;;;;;;;21.40;11.90;;;;;;;6.93;47.38;96904.75;5001466;28;20034;-62
2021/03/08 11:24:47;;;;;;;22.85;12.65;;;;;;;7.30;44.60;96907.53;5002037;28;20042;-63
2021/03/08 11:27:26;;;;;;;21.52;11.27;;;;;;;7.76;45.46;96895.34;4979153;28;20041;-62
2021/03/08 11:30:09;;;;;;;18.30;10.95;;;;;;;7.20;45.08;96904.13;5002108;28;20042;-63
2021/03/08 11:32:36;;;;;;;22.67;11.60;;;;;;;6.96;45.13;96904.06;5001867;28;20041;-61
2021/03/08 11:35:03;;;;;;;18.95;11.48;;;;;;;6.86;45.18;96908.81;5001589;28;20049;-62
2021/03/08 11:37:30;;;;;;;17.42;10.13;;;;;;;7.92;45.27;96898.13;5010203;28;20049;-62